createdAt,value
2023-03-19T00:00:32.414Z,6.87
2023-03-19T00:02:59.079Z,6.63
2023-03-19T00:05:25.842Z,8.63
2023-03-19T00:07:52.368Z,7.10
2023-03-19T00:10:19.058Z,7.60
2023-03-19T00:12:46.296Z,7.00
2023-03-19T00:15:14.477Z,6.80
2023-03-19T00:17:42.801Z,7.83
2023-03-19T00:20:11.508Z,7.30
2023-03-19T00:22:39.498Z,9.80
2023-03-19T00:25:07.963Z,7.13
2023-03-19T00:27:34.542Z,7.10
2023-03-19T00:30:02.429Z,6.97
2023-03-19T00:32:28.973Z,7.40
2023-03-19T00:34:55.518Z,7.13
2023-03-19T00:37:22.413Z,6.87
2023-03-19T00:39:49.000Z,7.77
2023-03-19T00:42:15.508Z,6.97
2023-03-19T00:44:42.050Z,8.30
2023-03-19T00:47:08.748Z,6.73
2023-03-19T00:49:35.285Z,7.27
2023-03-19T00:52:01.862Z,6.77
2023-03-19T00:54:28.534Z,7.03
2023-03-19T00:56:55.019Z,6.00
2023-03-19T00:59:21.540Z,6.23
2023-03-19T01:01:48.220Z,9.07
2023-03-19T01:04:14.878Z,5.97
2023-03-19T01:06:41.715Z,6.63
2023-03-19T01:09:08.274Z,6.20
2023-03-19T01:11:35.103Z,6.43
2023-03-19T01:14:02.434Z,6.37
2023-03-19T01:16:29.333Z,6.83
2023-03-19T01:18:55.952Z,7.97
2023-03-19T01:21:22.496Z,6.50
2023-03-19T01:23:49.291Z,7.00
2023-03-19T01:26:16.529Z,6.23
2023-03-19T01:28:43.320Z,6.70
2023-03-19T01:31:10.032Z,7.60
2023-03-19T01:33:37.459Z,6.37
2023-03-19T01:36:05.337Z,6.33
2023-03-19T01:38:32.446Z,6.97
2023-03-19T01:40:59.279Z,7.13
2023-03-19T01:43:28.524Z,6.50
2023-03-19T01:46:04.001Z,7.07
2023-03-19T01:48:40.830Z,6.70
2023-03-19T01:51:10.993Z,6.80
2023-03-19T01:53:41.579Z,7.90
2023-03-19T01:56:14.220Z,10.10
2023-03-19T01:58:43.779Z,7.10
2023-03-19T02:01:10.540Z,7.83
2023-03-19T02:03:38.456Z,7.83
2023-03-19T02:06:05.581Z,9.83
2023-03-19T02:08:33.388Z,7.33
2023-03-19T02:11:01.284Z,6.80
2023-03-19T02:13:28.245Z,6.90
2023-03-19T02:15:55.134Z,12.87
2023-03-19T02:18:22.449Z,6.47
2023-03-19T02:21:00.260Z,6.80
2023-03-19T02:23:37.250Z,6.93
2023-03-19T02:26:08.005Z,7.53
2023-03-19T02:28:39.317Z,6.70
2023-03-19T02:31:07.305Z,6.93
2023-03-19T02:33:33.997Z,10.23
2023-03-19T02:36:03.207Z,7.73
2023-03-19T02:38:32.459Z,6.73
2023-03-19T02:41:04.761Z,7.17
2023-03-19T02:43:37.255Z,9.20
2023-03-19T02:46:08.161Z,7.20
2023-03-19T02:48:35.253Z,7.00
2023-03-19T02:51:01.744Z,7.23
2023-03-19T02:53:28.306Z,6.93
2023-03-19T02:55:54.995Z,8.87
2023-03-19T02:58:21.934Z,6.50
2023-03-19T03:00:49.175Z,6.70
2023-03-19T03:03:17.232Z,7.00
2023-03-19T03:05:43.748Z,6.87
2023-03-19T03:08:10.535Z,6.63
2023-03-19T03:10:37.393Z,6.70
2023-03-19T03:13:05.397Z,6.70
2023-03-19T03:15:31.933Z,6.50
2023-03-19T03:17:58.513Z,7.10
2023-03-19T03:20:25.216Z,7.17
2023-03-19T03:22:51.881Z,7.03
2023-03-19T03:25:18.439Z,7.60
2023-03-19T03:27:45.499Z,11.87
2023-03-19T03:30:12.587Z,7.27
2023-03-19T03:32:39.715Z,7.00
2023-03-19T03:35:08.262Z,7.00
2023-03-19T03:37:36.743Z,9.87
2023-03-19T03:40:08.075Z,7.00
2023-03-19T03:42:36.625Z,8.10
2023-03-19T03:45:03.620Z,6.53
2023-03-19T03:47:30.311Z,7.80
2023-03-19T03:49:57.131Z,6.97
2023-03-19T03:52:23.789Z,9.10
2023-03-19T03:54:50.494Z,7.20
2023-03-19T03:57:17.009Z,8.77
2023-03-19T03:59:43.599Z,7.57
2023-03-19T04:02:10.297Z,8.73
2023-03-19T04:04:37.070Z,7.30
2023-03-19T04:07:03.661Z,7.80
2023-03-19T04:09:31.076Z,7.80
2023-03-19T04:11:57.595Z,7.17
2023-03-19T04:14:24.135Z,7.30
2023-03-19T04:16:51.089Z,7.80
2023-03-19T04:19:17.719Z,9.80
2023-03-19T04:21:44.761Z,9.27
2023-03-19T04:24:11.671Z,7.80
2023-03-19T04:26:38.714Z,7.97
2023-03-19T04:29:08.571Z,8.77
2023-03-19T04:31:35.513Z,8.50
2023-03-19T04:34:02.644Z,8.13
2023-03-19T04:36:29.228Z,8.87
2023-03-19T04:38:55.740Z,8.80
2023-03-19T04:41:22.810Z,8.67
2023-03-19T04:43:49.389Z,8.20
2023-03-19T04:46:16.895Z,8.87
2023-03-19T04:48:43.608Z,9.20
2023-03-19T04:51:10.173Z,8.10
2023-03-19T04:53:38.715Z,9.20
2023-03-19T04:56:06.781Z,8.40
2023-03-19T04:58:33.782Z,9.00
2023-03-19T05:01:00.374Z,12.00
2023-03-19T05:03:27.137Z,9.43
2023-03-19T05:05:55.096Z,8.20
2023-03-19T05:08:21.631Z,8.83
2023-03-19T05:10:48.377Z,8.80
2023-03-19T05:13:14.905Z,8.60
2023-03-19T05:15:46.591Z,10.20
2023-03-19T05:18:13.455Z,9.03
2023-03-19T05:20:40.513Z,8.27
2023-03-19T05:23:07.172Z,10.13
2023-03-19T05:25:37.340Z,8.70
2023-03-19T05:28:05.352Z,10.30
2023-03-19T05:30:33.102Z,9.10
2023-03-19T05:33:00.024Z,9.07
2023-03-19T05:35:29.208Z,8.97
2023-03-19T05:37:56.012Z,9.23
2023-03-19T05:40:23.707Z,9.77
2023-03-19T05:42:50.896Z,12.03
2023-03-19T05:45:17.682Z,9.57
2023-03-19T05:47:47.899Z,9.10
2023-03-19T05:50:14.444Z,10.00
2023-03-19T05:52:40.932Z,10.47
2023-03-19T05:55:08.169Z,9.90
2023-03-19T05:57:34.821Z,9.67
2023-03-19T06:00:01.575Z,43.83
2023-03-19T06:02:28.851Z,11.70
2023-03-19T06:04:55.516Z,9.77
2023-03-19T06:07:22.015Z,10.17
2023-03-19T06:09:48.563Z,9.07
2023-03-19T06:12:16.307Z,10.17
2023-03-19T06:14:42.899Z,11.93
2023-03-19T06:17:09.667Z,15.17
2023-03-19T06:19:36.427Z,10.63
2023-03-19T06:22:02.954Z,10.50
2023-03-19T06:24:30.602Z,9.63
2023-03-19T06:26:57.255Z,10.33
2023-03-19T06:29:23.788Z,10.83
2023-03-19T06:31:50.425Z,9.50
2023-03-19T06:34:17.165Z,11.20
2023-03-19T06:36:43.767Z,10.73
2023-03-19T06:39:10.468Z,8.63
2023-03-19T06:41:37.120Z,8.37
2023-03-19T06:44:04.548Z,10.07
2023-03-19T06:46:31.235Z,9.53
2023-03-19T06:48:57.805Z,8.83
2023-03-19T06:51:27.530Z,9.10
2023-03-19T06:53:54.825Z,8.60
2023-03-19T06:56:21.525Z,9.27
2023-03-19T06:58:48.031Z,8.27
2023-03-19T07:01:14.630Z,8.50
2023-03-19T07:03:41.162Z,9.77
2023-03-19T07:06:07.761Z,9.63
2023-03-19T07:08:34.365Z,9.00
2023-03-19T07:11:06.059Z,9.87
2023-03-19T07:13:33.464Z,8.90
2023-03-19T07:16:00.572Z,7.87
2023-03-19T07:18:27.132Z,8.27
2023-03-19T07:20:53.748Z,9.97
2023-03-19T07:23:20.282Z,8.13
2023-03-19T07:25:47.541Z,9.03
2023-03-19T07:28:14.582Z,8.47
2023-03-19T07:30:41.116Z,10.43
2023-03-19T07:33:08.394Z,9.03
2023-03-19T07:35:35.389Z,9.70
2023-03-19T07:38:02.569Z,9.00
2023-03-19T07:40:29.133Z,12.02
2023-03-19T07:42:55.699Z,11.30
2023-03-19T07:45:22.533Z,10.60
2023-03-19T07:47:52.702Z,10.93
2023-03-19T07:50:19.275Z,10.13
2023-03-19T07:52:48.108Z,14.43
2023-03-19T07:55:15.344Z,9.80
2023-03-19T07:57:41.912Z,8.93
2023-03-19T08:00:10.437Z,8.23
2023-03-19T08:02:37.038Z,8.53
2023-03-19T08:05:04.669Z,7.10
2023-03-19T08:07:32.048Z,7.90
2023-03-19T08:09:58.656Z,7.60
2023-03-19T08:12:26.104Z,7.93
2023-03-19T08:14:53.030Z,7.63
2023-03-19T08:17:19.858Z,7.43
2023-03-19T08:19:46.796Z,7.50
2023-03-19T08:22:13.681Z,7.77
2023-03-19T08:24:40.277Z,7.67
2023-03-19T08:27:07.765Z,7.70
2023-03-19T08:29:34.462Z,7.83
2023-03-19T08:32:01.214Z,7.30
2023-03-19T08:34:27.759Z,8.10
2023-03-19T08:36:54.271Z,8.00
2023-03-19T08:39:21.063Z,7.70
2023-03-19T08:41:47.571Z,8.63
2023-03-19T08:44:14.140Z,8.53
2023-03-19T08:46:42.461Z,8.60
2023-03-19T08:49:09.086Z,8.27
2023-03-19T08:51:36.211Z,9.03
2023-03-19T08:54:02.858Z,8.70
2023-03-19T08:56:29.659Z,7.80
2023-03-19T08:58:57.065Z,7.80
2023-03-19T09:01:24.152Z,7.27
2023-03-19T09:03:50.745Z,9.63
2023-03-19T09:06:17.264Z,6.67
2023-03-19T09:08:44.576Z,7.23
2023-03-19T09:11:11.226Z,9.73
2023-03-19T09:13:37.837Z,7.50
2023-03-19T09:16:04.978Z,7.13
2023-03-19T09:18:32.421Z,6.87
2023-03-19T09:20:59.424Z,8.93
2023-03-19T09:23:26.362Z,7.50
2023-03-19T09:25:53.060Z,7.50
2023-03-19T09:28:20.628Z,7.37
2023-03-19T09:30:50.330Z,7.90
2023-03-19T09:33:18.710Z,7.50
2023-03-19T09:35:53.242Z,7.97
2023-03-19T09:38:21.521Z,7.90
2023-03-19T09:40:56.146Z,7.30
2023-03-19T09:43:43.782Z,7.60
2023-03-19T09:46:18.701Z,8.03
2023-03-19T09:48:57.870Z,7.83
2023-03-19T09:51:44.694Z,6.90
2023-03-19T09:54:42.684Z,6.83
2023-03-19T09:57:11.047Z,7.03
2023-03-19T09:59:38.947Z,7.73
2023-03-19T10:02:43.116Z,6.70
2023-03-19T10:05:37.157Z,8.03
2023-03-19T10:08:31.858Z,8.27
2023-03-19T10:11:07.464Z,8.20
2023-03-19T10:13:43.448Z,7.53
2023-03-19T10:16:21.100Z,7.17
2023-03-19T10:18:54.098Z,8.47
2023-03-19T10:21:29.729Z,9.20
2023-03-19T10:24:05.240Z,7.03
2023-03-19T10:26:36.631Z,6.63
2023-03-19T10:29:14.652Z,6.10
2023-03-19T10:31:49.577Z,6.63
2023-03-19T10:34:28.878Z,5.90
2023-03-19T10:37:04.583Z,6.20
2023-03-19T10:39:33.936Z,5.53
2023-03-19T10:42:21.661Z,6.30
2023-03-19T10:45:02.758Z,5.23
2023-03-19T10:47:29.346Z,4.83
2023-03-19T10:49:56.624Z,5.60
2023-03-19T10:52:33.381Z,6.37
2023-03-19T10:55:12.367Z,5.43
2023-03-19T10:57:42.982Z,5.93
2023-03-19T11:00:22.734Z,6.07
2023-03-19T11:02:53.986Z,6.10
2023-03-19T11:05:27.703Z,6.10
2023-03-19T11:07:58.868Z,6.00
2023-03-19T11:10:28.097Z,5.37
2023-03-19T11:13:02.907Z,6.17
2023-03-19T11:15:36.348Z,5.77
2023-03-19T11:18:08.153Z,5.63
2023-03-19T11:20:37.948Z,5.97
2023-03-19T11:23:13.820Z,6.60
2023-03-19T11:25:46.842Z,6.17
2023-03-19T11:28:21.472Z,6.27
2023-03-19T11:31:12.801Z,5.90
2023-03-19T11:33:46.444Z,6.13
2023-03-19T11:36:38.138Z,6.00
2023-03-19T11:39:21.436Z,6.17
2023-03-19T11:42:06.771Z,5.97
2023-03-19T11:45:04.201Z,6.37
2023-03-19T11:47:54.536Z,6.37
2023-03-19T11:50:48.342Z,6.50
2023-03-19T11:53:38.196Z,6.50
2023-03-19T11:56:21.349Z,7.17
2023-03-19T11:59:09.382Z,7.73
2023-03-19T12:02:01.349Z,7.70
2023-03-19T12:04:42.967Z,8.20
2023-03-19T12:07:24.540Z,8.00
2023-03-19T12:10:16.567Z,7.20
2023-03-19T12:12:52.909Z,6.47
2023-03-19T12:15:25.148Z,6.30
2023-03-19T12:18:25.732Z,6.40
2023-03-19T12:21:11.365Z,6.43
2023-03-19T12:23:37.848Z,7.13
2023-03-19T12:26:06.620Z,4.83
2023-03-19T12:28:46.796Z,5.37
2023-03-19T12:31:27.606Z,5.43
2023-03-19T12:34:27.032Z,5.07
2023-03-19T12:37:08.620Z,4.60
2023-03-19T12:39:40.983Z,3.77
2023-03-19T12:42:13.265Z,4.00
2023-03-19T12:44:47.988Z,3.72
2023-03-19T12:47:24.984Z,4.50
2023-03-19T12:50:02.736Z,4.53
2023-03-19T12:52:41.067Z,4.50
2023-03-19T12:55:16.816Z,4.40
2023-03-19T12:57:58.259Z,4.37
2023-03-19T13:00:27.736Z,4.90
2023-03-19T13:03:15.899Z,4.57
2023-03-19T13:05:47.140Z,4.70
2023-03-19T13:08:35.060Z,3.87
2023-03-19T13:11:08.565Z,4.20
2023-03-19T13:13:41.443Z,5.20
2023-03-19T13:16:45.668Z,4.37
2023-03-19T13:19:24.059Z,4.00
2023-03-19T13:21:54.205Z,4.13
2023-03-19T13:24:26.791Z,3.43
2023-03-19T13:26:54.888Z,3.55
2023-03-19T13:29:32.136Z,3.90
2023-03-19T13:32:05.772Z,3.60
2023-03-19T13:34:35.516Z,3.60
2023-03-19T13:37:18.061Z,4.00
2023-03-19T13:39:48.204Z,4.07
2023-03-19T13:42:42.454Z,3.20
2023-03-19T13:45:34.484Z,3.58
2023-03-19T13:48:26.983Z,3.67
2023-03-19T13:51:23.828Z,3.70
2023-03-19T13:53:53.464Z,3.50
2023-03-19T13:56:29.478Z,3.40
2023-03-19T13:59:15.009Z,3.87
2023-03-19T14:01:47.064Z,3.70
2023-03-19T14:04:30.484Z,3.70
2023-03-19T14:07:16.003Z,4.63
2023-03-19T14:09:46.162Z,5.10
2023-03-19T14:12:23.218Z,5.10
2023-03-19T14:14:51.705Z,5.70
2023-03-19T14:17:30.793Z,7.00
2023-03-19T14:20:21.030Z,8.90
2023-03-19T14:22:58.394Z,9.67
2023-03-19T14:25:53.848Z,7.90
2023-03-19T14:28:27.145Z,7.40
2023-03-19T14:30:55.847Z,9.00
2023-03-19T14:33:50.350Z,8.03
2023-03-19T14:36:19.752Z,8.63
2023-03-19T14:39:01.899Z,8.27
2023-03-19T14:41:34.774Z,7.57
2023-03-19T14:44:38.641Z,7.80
2023-03-19T14:47:46.298Z,8.60
2023-03-19T14:50:34.728Z,7.07
2023-03-19T14:53:38.404Z,7.70
2023-03-19T14:56:18.974Z,6.67
2023-03-19T14:58:56.772Z,6.13
2023-03-19T15:01:26.892Z,6.87
2023-03-19T15:04:04.759Z,7.30
2023-03-19T15:06:34.880Z,7.73
2023-03-19T15:09:02.456Z,7.07
2023-03-19T15:11:38.766Z,7.70
2023-03-19T15:14:31.527Z,7.30
2023-03-19T15:17:15.521Z,7.60
2023-03-19T15:19:42.729Z,10.70
2023-03-19T15:22:14.282Z,10.13
2023-03-19T15:24:41.952Z,9.70
2023-03-19T15:27:22.982Z,9.37
2023-03-19T15:29:51.766Z,9.23
2023-03-19T15:32:54.213Z,11.17
2023-03-19T15:35:29.072Z,9.20
2023-03-19T15:37:59.792Z,9.00
2023-03-19T15:40:30.101Z,11.07
2023-03-19T15:43:00.132Z,9.50
2023-03-19T15:45:28.509Z,8.67
2023-03-19T15:48:00.533Z,8.00
2023-03-19T15:50:31.019Z,7.60
2023-03-19T15:53:01.291Z,7.63
2023-03-19T15:55:28.366Z,6.70
2023-03-19T15:58:02.702Z,5.97
2023-03-19T16:00:29.449Z,6.27
2023-03-19T16:02:57.159Z,6.20
2023-03-19T16:05:29.336Z,6.70
2023-03-19T16:08:00.922Z,6.30
2023-03-19T16:10:36.546Z,7.00
2023-03-19T16:13:18.567Z,7.10
2023-03-19T16:15:53.393Z,7.10
2023-03-19T16:18:19.851Z,6.67
2023-03-19T16:21:07.021Z,6.30
2023-03-19T16:23:37.031Z,6.37
2023-03-19T16:26:07.869Z,6.60
2023-03-19T16:28:34.400Z,6.10
2023-03-19T16:31:00.995Z,6.10
2023-03-19T16:33:28.128Z,8.07
2023-03-19T16:35:54.936Z,5.93
2023-03-19T16:38:27.709Z,5.93
2023-03-19T16:41:16.057Z,5.93
2023-03-19T16:43:46.592Z,8.53
2023-03-19T16:46:16.375Z,5.93
2023-03-19T16:48:43.836Z,5.47
2023-03-19T16:51:18.313Z,6.00
2023-03-19T16:53:45.969Z,6.10
2023-03-19T16:56:14.839Z,6.27
2023-03-19T16:58:45.548Z,6.00
2023-03-19T17:01:21.359Z,6.87
2023-03-19T17:03:49.607Z,6.97
2023-03-19T17:06:17.050Z,7.43
2023-03-19T17:08:44.232Z,11.23
2023-03-19T17:11:28.084Z,7.00
2023-03-19T17:13:57.449Z,7.93
2023-03-19T17:16:24.693Z,9.10
2023-03-19T17:18:51.348Z,7.67
2023-03-19T17:21:21.060Z,13.37
2023-03-19T17:23:47.805Z,10.10
2023-03-19T17:26:27.542Z,10.03
2023-03-19T17:28:55.864Z,8.30
2023-03-19T17:31:32.744Z,16.23
2023-03-19T17:34:04.618Z,11.93
2023-03-19T17:36:31.687Z,14.40
2023-03-19T17:38:58.576Z,12.97
2023-03-19T17:41:25.266Z,14.30
2023-03-19T17:43:52.189Z,12.37
2023-03-19T17:46:22.263Z,16.43
2023-03-19T17:48:50.746Z,15.17
2023-03-19T17:51:18.623Z,14.57
2023-03-19T17:53:48.859Z,12.33
2023-03-19T17:56:17.946Z,15.77
2023-03-19T17:58:44.872Z,12.43
2023-03-19T18:01:21.251Z,18.90
2023-03-19T18:03:53.205Z,12.73
2023-03-19T18:06:22.104Z,14.83
2023-03-19T18:08:48.908Z,16.27
2023-03-19T18:11:15.543Z,15.57
2023-03-19T18:13:42.775Z,17.37
2023-03-19T18:16:21.465Z,20.27
2023-03-19T18:18:50.222Z,15.70
2023-03-19T18:21:16.920Z,17.90
2023-03-19T18:23:44.353Z,16.07
2023-03-19T18:26:11.807Z,15.13
2023-03-19T18:28:38.953Z,19.97
2023-03-19T18:31:22.822Z,17.67
2023-03-19T18:33:54.910Z,19.47
2023-03-19T18:36:27.752Z,16.27
2023-03-19T18:38:55.505Z,20.80
2023-03-19T18:41:24.147Z,23.07
2023-03-19T18:43:50.826Z,19.37
2023-03-19T18:46:23.308Z,25.17
2023-03-19T18:48:50.180Z,24.43
2023-03-19T18:51:16.783Z,16.07
2023-03-19T18:53:43.384Z,19.63
2023-03-19T18:56:21.478Z,29.97
2023-03-19T18:58:48.676Z,35.93
2023-03-19T19:01:16.842Z,47.03
2023-03-19T19:03:45.452Z,46.13
2023-03-19T19:06:36.562Z,47.30
2023-03-19T19:09:12.594Z,42.63
2023-03-19T19:11:40.440Z,45.07
2023-03-19T19:14:12.277Z,46.23
2023-03-19T19:16:40.276Z,42.77
2023-03-19T19:19:23.245Z,48.73
2023-03-19T19:21:53.405Z,38.53
2023-03-19T19:24:21.034Z,44.67
2023-03-19T19:26:51.360Z,44.47
2023-03-19T19:29:24.409Z,39.03
2023-03-19T19:31:51.396Z,40.97
2023-03-19T19:34:17.985Z,37.23
2023-03-19T19:36:44.591Z,38.97
2023-03-19T19:39:11.424Z,36.70
2023-03-19T19:41:39.619Z,33.33
2023-03-19T19:44:06.857Z,34.13
2023-03-19T19:46:33.751Z,33.43
2023-03-19T19:49:00.555Z,30.17
2023-03-19T19:51:29.398Z,23.17
2023-03-19T19:53:56.062Z,28.90
2023-03-19T19:56:24.829Z,25.60
2023-03-19T19:58:53.940Z,28.60
2023-03-19T20:01:22.639Z,24.43
2023-03-19T20:03:49.801Z,25.27
2023-03-19T20:06:16.529Z,27.37
2023-03-19T20:08:43.531Z,26.93
2023-03-19T20:11:12.822Z,26.00
2023-03-19T20:13:40.357Z,24.90
2023-03-19T20:16:09.051Z,25.77
2023-03-19T20:18:35.864Z,24.10
2023-03-19T20:21:06.972Z,24.30
2023-03-19T20:23:33.552Z,23.30
2023-03-19T20:26:01.699Z,23.80
2023-03-19T20:28:32.421Z,24.07
2023-03-19T20:31:00.362Z,22.30
2023-03-19T20:33:27.768Z,22.20
2023-03-19T20:35:54.690Z,22.50
2023-03-19T20:38:21.263Z,29.03
2023-03-19T20:40:51.436Z,23.60
2023-03-19T20:43:20.939Z,20.60
2023-03-19T20:45:47.531Z,22.07
2023-03-19T20:48:16.458Z,25.60
2023-03-19T20:50:44.150Z,21.00
2023-03-19T20:53:10.991Z,22.67
2023-03-19T20:55:39.453Z,22.27
2023-03-19T20:58:28.122Z,25.10
2023-03-19T21:00:56.312Z,23.47
2023-03-19T21:03:25.593Z,28.23
2023-03-19T21:06:03.414Z,20.90
2023-03-19T21:08:40.397Z,27.27
2023-03-19T21:11:12.367Z,28.60
2023-03-19T21:13:38.855Z,21.50
2023-03-19T21:16:05.793Z,19.93
2023-03-19T21:18:32.301Z,22.27
2023-03-19T21:20:59.581Z,23.20
2023-03-19T21:23:34.200Z,22.43
2023-03-19T21:26:17.572Z,26.70
2023-03-19T21:28:45.761Z,24.27
2023-03-19T21:31:18.577Z,19.93
2023-03-19T21:33:49.183Z,18.97
2023-03-19T21:36:16.672Z,21.90
2023-03-19T21:38:43.538Z,32.13
2023-03-19T21:41:24.694Z,30.63
2023-03-19T21:44:01.348Z,30.90
2023-03-19T21:46:30.419Z,31.20
2023-03-19T21:48:58.971Z,33.03
2023-03-19T21:51:27.509Z,29.33
2023-03-19T21:53:54.074Z,33.83
2023-03-19T21:56:23.703Z,31.13
2023-03-19T21:58:53.856Z,29.33
2023-03-19T22:01:23.433Z,29.20
2023-03-19T22:03:51.479Z,30.53
2023-03-19T22:06:18.964Z,28.37
2023-03-19T22:08:46.601Z,30.70
2023-03-19T22:11:24.246Z,32.27
2023-03-19T22:13:50.889Z,27.07
2023-03-19T22:16:23.708Z,27.47
2023-03-19T22:18:51.960Z,26.10
2023-03-19T22:21:21.204Z,22.30
2023-03-19T22:23:48.204Z,24.30
2023-03-19T22:26:24.111Z,23.37
2023-03-19T22:28:50.867Z,26.27
2023-03-19T22:31:17.470Z,30.27
2023-03-19T22:33:44.254Z,29.63
2023-03-19T22:36:13.813Z,31.23
2023-03-19T22:38:41.116Z,28.57
2023-03-19T22:41:37.526Z,26.20
2023-03-19T22:44:07.749Z,25.97
2023-03-19T22:46:34.726Z,28.23
2023-03-19T22:49:02.311Z,31.03
2023-03-19T22:51:28.818Z,28.50
2023-03-19T22:53:55.680Z,25.23
2023-03-19T22:56:23.123Z,26.80
2023-03-19T22:58:49.671Z,27.10
2023-03-19T23:01:26.036Z,29.23
2023-03-19T23:03:56.158Z,31.00
2023-03-19T23:06:30.589Z,27.80
2023-03-19T23:08:57.776Z,29.80
2023-03-19T23:11:24.758Z,31.60
2023-03-19T23:13:51.565Z,28.00
2023-03-19T23:16:23.846Z,27.87
2023-03-19T23:18:51.250Z,37.73
2023-03-19T23:21:18.687Z,30.00
2023-03-19T23:23:45.828Z,29.07
2023-03-19T23:26:28.799Z,32.43
2023-03-19T23:28:59.260Z,27.30
2023-03-19T23:31:25.763Z,30.83
2023-03-19T23:33:52.287Z,30.53
2023-03-19T23:36:18.845Z,30.07
2023-03-19T23:38:46.537Z,27.60
2023-03-19T23:41:22.051Z,31.83
2023-03-19T23:43:48.771Z,28.40
2023-03-19T23:46:15.881Z,31.43
2023-03-19T23:48:42.544Z,31.23
2023-03-19T23:51:16.633Z,31.50
2023-03-19T23:53:44.001Z,31.13
2023-03-19T23:56:23.302Z,30.77
2023-03-19T23:58:52.497Z,32.97
